TimeCDT,TemperatureF,Dew PointF,Humidity,Sea Level PressureIn,VisibilityMPH,Wind Direction,Wind SpeedMPH,Gust SpeedMPH,PrecipitationIn,Events,Conditions,WindDirDegrees,DateUTC
12:53 AM,34.0,30.0,85,30.06,10.0,WSW,3.5,-,N/A,,Clear,240,2013-04-05 05:53:00
1:53 AM,35.1,30.0,82,30.07,10.0,West,4.6,-,N/A,,Clear,260,2013-04-05 06:53:00
2:53 AM,35.1,30.0,82,30.07,10.0,West,4.6,-,N/A,,Clear,270,2013-04-05 07:53:00
3:53 AM,32.0,28.0,85,30.09,10.0,WSW,3.5,-,N/A,,Clear,240,2013-04-05 08:53:00
4:53 AM,35.1,28.0,76,30.10,10.0,Calm,Calm,-,N/A,,Clear,0,2013-04-05 09:53:00
5:53 AM,33.1,28.0,82,30.12,10.0,Calm,Calm,-,N/A,,Clear,0,2013-04-05 10:53:00
6:53 AM,30.0,27.0,88,30.14,10.0,Calm,Calm,-,N/A,,Clear,0,2013-04-05 11:53:00
7:53 AM,36.0,32.0,86,30.16,10.0,Calm,Calm,-,N/A,,Clear,0,2013-04-05 12:53:00
8:53 AM,44.1,34.0,68,30.15,10.0,Calm,Calm,-,N/A,,Clear,0,2013-04-05 13:53:00
9:53 AM,53.1,34.0,48,30.15,10.0,WNW,5.8,-,N/A,,Clear,290,2013-04-05 14:53:00
10:53 AM,59.0,34.0,39,30.15,10.0,Calm,Calm,-,N/A,,Clear,0,2013-04-05 15:53:00
11:53 AM,63.0,35.1,35,30.14,9.0,Variable,3.5,-,N/A,,Clear,0,2013-04-05 16:53:00
12:53 PM,66.9,33.1,28,30.14,10.0,NW,11.5,17.3,N/A,,Clear,310,2013-04-05 17:53:00
1:53 PM,68.0,36.0,31,30.11,10.0,NNW,12.7,19.6,N/A,,Clear,330,2013-04-05 18:53:00
2:53 PM,69.1,37.0,31,30.08,10.0,NNW,10.4,-,N/A,,Clear,330,2013-04-05 19:53:00
3:53 PM,69.1,35.1,29,30.06,10.0,North,10.4,-,N/A,,Clear,350,2013-04-05 20:53:00
4:53 PM,70.0,36.0,29,30.05,10.0,North,10.4,-,N/A,,Clear,10,2013-04-05 21:53:00
5:53 PM,69.1,35.1,29,30.05,10.0,North,8.1,-,N/A,,Clear,10,2013-04-05 22:53:00
6:53 PM,66.0,36.0,33,30.05,10.0,ENE,4.6,-,N/A,,Clear,70,2013-04-05 23:53:00
7:53 PM,59.0,39.9,49,30.07,10.0,Calm,Calm,-,N/A,,Clear,0,2013-04-06 00:53:00
8:53 PM,54.0,41.0,62,30.09,10.0,Calm,Calm,-,N/A,,Clear,0,2013-04-06 01:53:00
9:53 PM,51.1,39.9,66,30.11,10.0,Calm,Calm,-,N/A,,Clear,0,2013-04-06 02:53:00
10:53 PM,46.9,39.9,77,30.09,10.0,ESE,5.8,-,N/A,,Clear,120,2013-04-06 03:53:00
11:53 PM,46.0,39.0,76,30.09,10.0,SSE,5.8,-,N/A,,Clear,160,2013-04-06 04:53:00